Forside
METAR-TAF:

METAR-TAF

Lufthavne :

Pontiac Municipal Airport

Pontiac, Illinois, USA

Breddekreds: 40-55-25N, længdekreds: 088-37-31W, højde: 201 m

Aktuelle vejr

Denne rapport blev lavet for 34 minutter siden, kl. 15:10 UTC
Vind 9 kt fra nord
Temperatur 9°C
Fugtighed 57%
Tryk 1026 hPa
Sigt: 16.1 km
skyfri

METAR: KPNT 231510Z AUTO 36009KT 10SM CLR 09/01 A3031 RMK AO2 T00900007

Tid: 10:44 (15:44 UTC)


TAF: fraværende

Vejrobservationer og prognoser fra mere end 4000 lufthavne (METAR og TAF).

De gule og røde prikker repræsenterer de meteorologiske stationer.

Flyt musen over at se navnet på stationen.

Så klik over at se vejr observationer og prognoser.

At skifte det kort: Klik på de grønne knapper med et sort kors for at zoome ind; på den grønne knap med en bindestreg for at zoome ud; eller på de grønne pile for tilstødende kort.


METAR-TAF: